sensor_id;sensor_type;location;lat;lon;timestamp;P1;durP1;ratioP1;P2;durP2;ratioP2
50379;SDS011;37474;59.468;18.040;2024-03-23T00:53:12;13.77;;;2.30;;
50379;SDS011;37474;59.468;18.040;2024-03-23T00:55:40;24.42;;;2.83;;
50379;SDS011;37474;59.468;18.040;2024-03-23T00:58:07;12.53;;;2.27;;
50379;SDS011;37474;59.468;18.040;2024-03-23T01:00:34;18.90;;;3.00;;
50379;SDS011;37474;59.468;18.040;2024-03-23T01:03:01;12.37;;;2.87;;
50379;SDS011;37474;59.468;18.040;2024-03-23T01:05:27;16.37;;;2.37;;
50379;SDS011;37474;59.468;18.040;2024-03-23T01:07:54;13.80;;;2.30;;
50379;SDS011;37474;59.468;18.040;2024-03-23T01:10:21;12.93;;;1.97;;
50379;SDS011;37474;59.468;18.040;2024-03-23T01:12:48;15.67;;;2.17;;
50379;SDS011;37474;59.468;18.040;2024-03-23T01:15:17;12.93;;;2.07;;
50379;SDS011;37474;59.468;18.040;2024-03-23T01:17:44;14.03;;;2.53;;
50379;SDS011;37474;59.468;18.040;2024-03-23T01:20:10;16.83;;;2.27;;
50379;SDS011;37474;59.468;18.040;2024-03-23T01:22:37;16.67;;;1.97;;
50379;SDS011;37474;59.468;18.040;2024-03-23T01:25:03;14.53;;;1.90;;
50379;SDS011;37474;59.468;18.040;2024-03-23T01:27:32;11.40;;;2.07;;
50379;SDS011;37474;59.468;18.040;2024-03-23T01:30:00;12.95;;;1.70;;
50379;SDS011;37474;59.468;18.040;2024-03-23T01:32:27;8.73;;;1.50;;
50379;SDS011;37474;59.468;18.040;2024-03-23T01:34:53;12.57;;;1.67;;
50379;SDS011;37474;59.468;18.040;2024-03-23T01:37:20;14.83;;;2.50;;
50379;SDS011;37474;59.468;18.040;2024-03-23T01:39:46;13.70;;;2.00;;
50379;SDS011;37474;59.468;18.040;2024-03-23T01:42:13;12.50;;;1.97;;
50379;SDS011;37474;59.468;18.040;2024-03-23T01:44:41;12.37;;;2.10;;
50379;SDS011;37474;59.468;18.040;2024-03-23T01:47:08;12.40;;;2.30;;
50379;SDS011;37474;59.468;18.040;2024-03-23T01:49:35;9.50;;;1.67;;
50379;SDS011;37474;59.468;18.040;2024-03-23T01:52:02;12.03;;;2.50;;
50379;SDS011;37474;59.468;18.040;2024-03-23T01:54:29;14.70;;;2.77;;
50379;SDS011;37474;59.468;18.040;2024-03-23T01:56:56;10.43;;;1.70;;
50379;SDS011;37474;59.468;18.040;2024-03-23T01:59:24;13.33;;;1.80;;
50379;SDS011;37474;59.468;18.040;2024-03-23T02:01:51;6.80;;;1.70;;
50379;SDS011;37474;59.468;18.040;2024-03-23T02:04:18;9.13;;;1.80;;
50379;SDS011;37474;59.468;18.040;2024-03-23T02:06:44;18.63;;;2.63;;
50379;SDS011;37474;59.468;18.040;2024-03-23T02:09:11;13.90;;;1.73;;
50379;SDS011;37474;59.468;18.040;2024-03-23T02:11:37;10.90;;;2.00;;
50379;SDS011;37474;59.468;18.040;2024-03-23T02:14:04;11.77;;;2.07;;
50379;SDS011;37474;59.468;18.040;2024-03-23T02:16:30;12.77;;;1.93;;
50379;SDS011;37474;59.468;18.040;2024-03-23T02:18:59;19.73;;;2.43;;
50379;SDS011;37474;59.468;18.040;2024-03-23T02:21:25;13.90;;;2.27;;
50379;SDS011;37474;59.468;18.040;2024-03-23T02:23:54;11.27;;;1.87;;
50379;SDS011;37474;59.468;18.040;2024-03-23T02:26:20;14.70;;;1.60;;
50379;SDS011;37474;59.468;18.040;2024-03-23T02:28:47;15.80;;;2.27;;
50379;SDS011;37474;59.468;18.040;2024-03-23T02:31:15;13.43;;;2.20;;
50379;SDS011;37474;59.468;18.040;2024-03-23T02:33:42;14.87;;;2.03;;
50379;SDS011;37474;59.468;18.040;2024-03-23T02:36:08;14.80;;;1.97;;
50379;SDS011;37474;59.468;18.040;2024-03-23T02:38:35;10.93;;;1.53;;
50379;SDS011;37474;59.468;18.040;2024-03-23T02:41:03;18.77;;;2.57;;
50379;SDS011;37474;59.468;18.040;2024-03-23T02:43:31;14.10;;;2.60;;
50379;SDS011;37474;59.468;18.040;2024-03-23T02:45:57;11.40;;;1.37;;
50379;SDS011;37474;59.468;18.040;2024-03-23T02:48:24;11.00;;;1.80;;
50379;SDS011;37474;59.468;18.040;2024-03-23T02:50:50;12.33;;;1.63;;
50379;SDS011;37474;59.468;18.040;2024-03-23T02:53:17;10.43;;;1.87;;
50379;SDS011;37474;59.468;18.040;2024-03-23T02:55:44;15.73;;;2.47;;
50379;SDS011;37474;59.468;18.040;2024-03-23T02:58:12;10.73;;;1.63;;
50379;SDS011;37474;59.468;18.040;2024-03-23T03:00:38;15.17;;;2.20;;
50379;SDS011;37474;59.468;18.040;2024-03-23T03:03:06;16.97;;;1.87;;
50379;SDS011;37474;59.468;18.040;2024-03-23T03:05:32;14.37;;;1.87;;
50379;SDS011;37474;59.468;18.040;2024-03-23T03:08:00;11.67;;;1.93;;
50379;SDS011;37474;59.468;18.040;2024-03-23T03:10:27;17.30;;;3.13;;
50379;SDS011;37474;59.468;18.040;2024-03-23T03:12:54;18.67;;;1.80;;
50379;SDS011;37474;59.468;18.040;2024-03-23T03:15:22;12.60;;;2.00;;
50379;SDS011;37474;59.468;18.040;2024-03-23T03:17:49;15.77;;;1.93;;
50379;SDS011;37474;59.468;18.040;2024-03-23T03:20:15;17.67;;;2.43;;
50379;SDS011;37474;59.468;18.040;2024-03-23T03:22:43;19.53;;;1.90;;
50379;SDS011;37474;59.468;18.040;2024-03-23T03:25:09;14.77;;;2.20;;
50379;SDS011;37474;59.468;18.040;2024-03-23T03:27:36;17.63;;;2.40;;
50379;SDS011;37474;59.468;18.040;2024-03-23T03:30:02;12.37;;;2.60;;
50379;SDS011;37474;59.468;18.040;2024-03-23T03:32:33;13.63;;;2.50;;
50379;SDS011;37474;59.468;18.040;2024-03-23T03:34:59;12.07;;;2.40;;
50379;SDS011;37474;59.468;18.040;2024-03-23T03:37:26;18.03;;;2.70;;
50379;SDS011;37474;59.468;18.040;2024-03-23T03:39:52;16.97;;;2.57;;
50379;SDS011;37474;59.468;18.040;2024-03-23T03:42:19;14.97;;;2.23;;
50379;SDS011;37474;59.468;18.040;2024-03-23T03:44:45;16.33;;;2.00;;
50379;SDS011;37474;59.468;18.040;2024-03-23T03:47:12;19.63;;;2.90;;
50379;SDS011;37474;59.468;18.040;2024-03-23T03:49:39;18.83;;;2.00;;
50379;SDS011;37474;59.468;18.040;2024-03-23T03:52:06;15.40;;;2.03;;
50379;SDS011;37474;59.468;18.040;2024-03-23T03:54:32;23.37;;;3.03;;
50379;SDS011;37474;59.468;18.040;2024-03-23T03:57:00;20.50;;;3.30;;
50379;SDS011;37474;59.468;18.040;2024-03-23T03:59:26;13.37;;;2.07;;
50379;SDS011;37474;59.468;18.040;2024-03-23T04:01:53;18.90;;;2.27;;
50379;SDS011;37474;59.468;18.040;2024-03-23T04:04:19;19.57;;;2.47;;
50379;SDS011;37474;59.468;18.040;2024-03-23T04:06:47;16.30;;;2.20;;
50379;SDS011;37474;59.468;18.040;2024-03-23T04:09:13;15.90;;;3.10;;
50379;SDS011;37474;59.468;18.040;2024-03-23T04:11:40;23.80;;;3.17;;
50379;SDS011;37474;59.468;18.040;2024-03-23T04:14:08;24.70;;;2.70;;
50379;SDS011;37474;59.468;18.040;2024-03-23T04:16:36;18.40;;;2.60;;
50379;SDS011;37474;59.468;18.040;2024-03-23T04:19:02;12.67;;;2.40;;
50379;SDS011;37474;59.468;18.040;2024-03-23T04:21:29;24.40;;;2.57;;
50379;SDS011;37474;59.468;18.040;2024-03-23T04:23:56;24.70;;;2.43;;
50379;SDS011;37474;59.468;18.040;2024-03-23T04:26:23;24.33;;;2.67;;
50379;SDS011;37474;59.468;18.040;2024-03-23T04:28:49;21.00;;;2.70;;
50379;SDS011;37474;59.468;18.040;2024-03-23T04:31:16;21.20;;;2.80;;
50379;SDS011;37474;59.468;18.040;2024-03-23T04:33:42;16.97;;;2.30;;
50379;SDS011;37474;59.468;18.040;2024-03-23T04:36:09;18.77;;;2.70;;
50379;SDS011;37474;59.468;18.040;2024-03-23T04:38:35;24.60;;;2.90;;
50379;SDS011;37474;59.468;18.040;2024-03-23T04:41:04;19.13;;;2.63;;
50379;SDS011;37474;59.468;18.040;2024-03-23T04:43:31;17.57;;;2.03;;
50379;SDS011;37474;59.468;18.040;2024-03-23T04:45:58;20.63;;;2.30;;
50379;SDS011;37474;59.468;18.040;2024-03-23T04:48:24;26.30;;;4.20;;
50379;SDS011;37474;59.468;18.040;2024-03-23T04:50:54;25.63;;;2.53;;
50379;SDS011;37474;59.468;18.040;2024-03-23T04:53:23;14.23;;;1.87;;
50379;SDS011;37474;59.468;18.040;2024-03-23T04:55:53;25.53;;;2.80;;
50379;SDS011;37474;59.468;18.040;2024-03-23T04:58:22;13.27;;;2.00;;
50379;SDS011;37474;59.468;18.040;2024-03-23T05:00:52;17.47;;;3.03;;
50379;SDS011;37474;59.468;18.040;2024-03-23T05:03:20;30.70;;;3.23;;
50379;SDS011;37474;59.468;18.040;2024-03-23T05:05:46;23.07;;;3.20;;
50379;SDS011;37474;59.468;18.040;2024-03-23T05:08:14;15.00;;;2.33;;
50379;SDS011;37474;59.468;18.040;2024-03-23T05:10:41;18.30;;;2.47;;
50379;SDS011;37474;59.468;18.040;2024-03-23T05:13:08;26.70;;;3.00;;
50379;SDS011;37474;59.468;18.040;2024-03-23T05:15:35;23.20;;;2.67;;
50379;SDS011;37474;59.468;18.040;2024-03-23T05:18:03;28.30;;;3.03;;
50379;SDS011;37474;59.468;18.040;2024-03-23T05:20:30;20.73;;;2.53;;
50379;SDS011;37474;59.468;18.040;2024-03-23T05:22:57;19.70;;;2.43;;
50379;SDS011;37474;59.468;18.040;2024-03-23T05:25:23;20.87;;;2.83;;
50379;SDS011;37474;59.468;18.040;2024-03-23T05:27:50;21.97;;;2.60;;
50379;SDS011;37474;59.468;18.040;2024-03-23T05:30:16;18.73;;;2.57;;
50379;SDS011;37474;59.468;18.040;2024-03-23T05:32:45;21.80;;;2.57;;
50379;SDS011;37474;59.468;18.040;2024-03-23T05:35:11;22.07;;;3.23;;
50379;SDS011;37474;59.468;18.040;2024-03-23T05:37:38;23.60;;;2.77;;
50379;SDS011;37474;59.468;18.040;2024-03-23T05:40:04;23.13;;;3.03;;
50379;SDS011;37474;59.468;18.040;2024-03-23T05:42:35;19.50;;;2.70;;
50379;SDS011;37474;59.468;18.040;2024-03-23T05:45:01;21.70;;;3.33;;
50379;SDS011;37474;59.468;18.040;2024-03-23T05:47:32;15.57;;;2.27;;
50379;SDS011;37474;59.468;18.040;2024-03-23T05:49:59;21.97;;;2.53;;
50379;SDS011;37474;59.468;18.040;2024-03-23T05:52:27;25.00;;;3.03;;
50379;SDS011;37474;59.468;18.040;2024-03-23T05:54:53;25.00;;;2.70;;
50379;SDS011;37474;59.468;18.040;2024-03-23T05:57:20;19.70;;;2.87;;
50379;SDS011;37474;59.468;18.040;2024-03-23T05:59:46;17.97;;;3.10;;
50379;SDS011;37474;59.468;18.040;2024-03-23T06:02:14;19.47;;;3.00;;
50379;SDS011;37474;59.468;18.040;2024-03-23T06:04:39;18.83;;;2.73;;
50379;SDS011;37474;59.468;18.040;2024-03-23T06:07:08;17.40;;;2.40;;
50379;SDS011;37474;59.468;18.040;2024-03-23T06:09:39;18.93;;;2.30;;
50379;SDS011;37474;59.468;18.040;2024-03-23T06:12:05;15.90;;;2.40;;
50379;SDS011;37474;59.468;18.040;2024-03-23T06:14:33;23.63;;;2.57;;
50379;SDS011;37474;59.468;18.040;2024-03-23T06:16:59;21.97;;;3.53;;
50379;SDS011;37474;59.468;18.040;2024-03-23T06:19:26;24.53;;;3.30;;
50379;SDS011;37474;59.468;18.040;2024-03-23T06:21:53;24.27;;;2.90;;
50379;SDS011;37474;59.468;18.040;2024-03-23T06:24:21;16.50;;;2.40;;
50379;SDS011;37474;59.468;18.040;2024-03-23T06:26:47;25.87;;;2.40;;
50379;SDS011;37474;59.468;18.040;2024-03-23T06:29:15;22.57;;;2.63;;
50379;SDS011;37474;59.468;18.040;2024-03-23T06:31:41;21.90;;;2.93;;
50379;SDS011;37474;59.468;18.040;2024-03-23T06:34:08;20.97;;;2.63;;
50379;SDS011;37474;59.468;18.040;2024-03-23T06:36:34;18.67;;;2.60;;
50379;SDS011;37474;59.468;18.040;2024-03-23T06:39:04;15.73;;;2.08;;
50379;SDS011;37474;59.468;18.040;2024-03-23T06:41:32;16.00;;;2.53;;
50379;SDS011;37474;59.468;18.040;2024-03-23T06:43:58;28.33;;;3.33;;
50379;SDS011;37474;59.468;18.040;2024-03-23T06:46:27;18.47;;;3.20;;
50379;SDS011;37474;59.468;18.040;2024-03-23T06:48:53;19.87;;;3.57;;
50379;SDS011;37474;59.468;18.040;2024-03-23T06:51:20;21.03;;;2.97;;
50379;SDS011;37474;59.468;18.040;2024-03-23T06:53:46;17.97;;;2.60;;
50379;SDS011;37474;59.468;18.040;2024-03-23T06:56:13;16.03;;;2.30;;
50379;SDS011;37474;59.468;18.040;2024-03-23T06:58:40;27.63;;;5.73;;
50379;SDS011;37474;59.468;18.040;2024-03-23T07:01:07;25.50;;;3.33;;
50379;SDS011;37474;59.468;18.040;2024-03-23T07:03:33;25.03;;;3.10;;
50379;SDS011;37474;59.468;18.040;2024-03-23T07:06:00;18.80;;;3.27;;
50379;SDS011;37474;59.468;18.040;2024-03-23T07:08:26;24.20;;;2.60;;
50379;SDS011;37474;59.468;18.040;2024-03-23T07:10:53;21.47;;;2.43;;
50379;SDS011;37474;59.468;18.040;2024-03-23T07:13:19;19.97;;;2.77;;
50379;SDS011;37474;59.468;18.040;2024-03-23T07:15:52;19.87;;;2.67;;
50379;SDS011;37474;59.468;18.040;2024-03-23T07:18:18;22.57;;;2.90;;
50379;SDS011;37474;59.468;18.040;2024-03-23T07:20:51;18.30;;;2.50;;
50379;SDS011;37474;59.468;18.040;2024-03-23T07:23:18;19.97;;;2.67;;
50379;SDS011;37474;59.468;18.040;2024-03-23T07:25:44;21.50;;;2.93;;
50379;SDS011;37474;59.468;18.040;2024-03-23T07:28:11;25.17;;;3.07;;
50379;SDS011;37474;59.468;18.040;2024-03-23T07:30:38;22.43;;;2.97;;
50379;SDS011;37474;59.468;18.040;2024-03-23T07:33:05;19.07;;;2.67;;
50379;SDS011;37474;59.468;18.040;2024-03-23T07:35:32;12.63;;;2.50;;
50379;SDS011;37474;59.468;18.040;2024-03-23T07:37:58;19.30;;;2.67;;
50379;SDS011;37474;59.468;18.040;2024-03-23T07:40:30;18.20;;;2.53;;
50379;SDS011;37474;59.468;18.040;2024-03-23T07:42:56;19.30;;;2.60;;
50379;SDS011;37474;59.468;18.040;2024-03-23T07:45:23;18.50;;;3.37;;
50379;SDS011;37474;59.468;18.040;2024-03-23T07:47:49;22.77;;;2.63;;
50379;SDS011;37474;59.468;18.040;2024-03-23T07:50:18;16.63;;;2.47;;
50379;SDS011;37474;59.468;18.040;2024-03-23T07:52:44;16.57;;;2.73;;
50379;SDS011;37474;59.468;18.040;2024-03-23T07:55:11;25.17;;;3.90;;
50379;SDS011;37474;59.468;18.040;2024-03-23T07:57:38;16.30;;;2.90;;
50379;SDS011;37474;59.468;18.040;2024-03-23T08:00:05;23.50;;;2.63;;
50379;SDS011;37474;59.468;18.040;2024-03-23T08:02:33;19.80;;;2.13;;
50379;SDS011;37474;59.468;18.040;2024-03-23T08:04:59;17.63;;;2.67;;
50379;SDS011;37474;59.468;18.040;2024-03-23T08:07:28;16.33;;;2.60;;
50379;SDS011;37474;59.468;18.040;2024-03-23T08:09:54;16.50;;;3.07;;
50379;SDS011;37474;59.468;18.040;2024-03-23T08:12:21;20.07;;;3.00;;
50379;SDS011;37474;59.468;18.040;2024-03-23T08:14:47;13.73;;;2.33;;
50379;SDS011;37474;59.468;18.040;2024-03-23T08:17:14;22.17;;;2.60;;
50379;SDS011;37474;59.468;18.040;2024-03-23T08:19:40;18.83;;;2.87;;
50379;SDS011;37474;59.468;18.040;2024-03-23T08:22:07;21.13;;;2.60;;
50379;SDS011;37474;59.468;18.040;2024-03-23T08:24:35;17.50;;;2.60;;
50379;SDS011;37474;59.468;18.040;2024-03-23T08:27:02;22.13;;;2.60;;
50379;SDS011;37474;59.468;18.040;2024-03-23T08:29:32;17.87;;;2.47;;
50379;SDS011;37474;59.468;18.040;2024-03-23T08:31:59;22.30;;;2.60;;
50379;SDS011;37474;59.468;18.040;2024-03-23T08:34:26;16.93;;;2.60;;
50379;SDS011;37474;59.468;18.040;2024-03-23T08:36:53;21.57;;;2.90;;
50379;SDS011;37474;59.468;18.040;2024-03-23T08:39:19;21.23;;;3.00;;
50379;SDS011;37474;59.468;18.040;2024-03-23T08:41:55;20.33;;;2.97;;
50379;SDS011;37474;59.468;18.040;2024-03-23T08:44:23;18.03;;;2.50;;
50379;SDS011;37474;59.468;18.040;2024-03-23T08:46:50;20.83;;;2.63;;
50379;SDS011;37474;59.468;18.040;2024-03-23T08:49:16;18.57;;;2.80;;
50379;SDS011;37474;59.468;18.040;2024-03-23T08:51:43;19.23;;;2.33;;
50379;SDS011;37474;59.468;18.040;2024-03-23T08:54:09;21.20;;;2.90;;
50379;SDS011;37474;59.468;18.040;2024-03-23T08:56:36;18.63;;;2.40;;
50379;SDS011;37474;59.468;18.040;2024-03-23T08:59:04;23.83;;;2.87;;
50379;SDS011;37474;59.468;18.040;2024-03-23T09:01:31;16.70;;;2.23;;
50379;SDS011;37474;59.468;18.040;2024-03-23T09:03:59;22.53;;;3.00;;
50379;SDS011;37474;59.468;18.040;2024-03-23T09:06:26;16.50;;;2.50;;
50379;SDS011;37474;59.468;18.040;2024-03-23T09:08:52;21.87;;;2.93;;
50379;SDS011;37474;59.468;18.040;2024-03-23T09:11:19;16.87;;;2.60;;
50379;SDS011;37474;59.468;18.040;2024-03-23T09:13:47;22.87;;;2.63;;
50379;SDS011;37474;59.468;18.040;2024-03-23T09:16:16;16.20;;;2.33;;
50379;SDS011;37474;59.468;18.040;2024-03-23T09:18:42;18.13;;;3.07;;
50379;SDS011;37474;59.468;18.040;2024-03-23T09:21:11;18.30;;;3.13;;
50379;SDS011;37474;59.468;18.040;2024-03-23T09:23:38;16.93;;;2.90;;
50379;SDS011;37474;59.468;18.040;2024-03-23T09:26:05;15.53;;;2.53;;
50379;SDS011;37474;59.468;18.040;2024-03-23T09:28:32;18.37;;;3.47;;
50379;SDS011;37474;59.468;18.040;2024-03-23T09:31:02;17.27;;;2.73;;
50379;SDS011;37474;59.468;18.040;2024-03-23T09:33:30;17.97;;;2.70;;
50379;SDS011;37474;59.468;18.040;2024-03-23T09:35:57;22.90;;;3.10;;
50379;SDS011;37474;59.468;18.040;2024-03-23T09:38:23;18.87;;;3.10;;
50379;SDS011;37474;59.468;18.040;2024-03-23T09:40:52;19.43;;;2.53;;
50379;SDS011;37474;59.468;18.040;2024-03-23T09:43:19;19.23;;;2.67;;
50379;SDS011;37474;59.468;18.040;2024-03-23T09:45:46;20.23;;;3.43;;
50379;SDS011;37474;59.468;18.040;2024-03-23T09:48:12;13.77;;;2.57;;
50379;SDS011;37474;59.468;18.040;2024-03-23T09:50:41;15.43;;;2.77;;
50379;SDS011;37474;59.468;18.040;2024-03-23T09:53:11;21.47;;;3.50;;
50379;SDS011;37474;59.468;18.040;2024-03-23T09:55:39;18.90;;;3.10;;
50379;SDS011;37474;59.468;18.040;2024-03-23T09:58:07;19.20;;;2.77;;
50379;SDS011;37474;59.468;18.040;2024-03-23T10:00:34;19.53;;;3.17;;
50379;SDS011;37474;59.468;18.040;2024-03-23T10:03:00;17.47;;;2.57;;
50379;SDS011;37474;59.468;18.040;2024-03-23T10:05:32;19.03;;;2.93;;
50379;SDS011;37474;59.468;18.040;2024-03-23T10:08:00;16.20;;;2.40;;
50379;SDS011;37474;59.468;18.040;2024-03-23T10:10:45;28.37;;;3.33;;
50379;SDS011;37474;59.468;18.040;2024-03-23T10:13:11;16.33;;;2.87;;
50379;SDS011;37474;59.468;18.040;2024-03-23T10:15:57;17.10;;;3.10;;
50379;SDS011;37474;59.468;18.040;2024-03-23T10:18:25;22.50;;;2.73;;
50379;SDS011;37474;59.468;18.040;2024-03-23T10:21:06;21.52;;;3.05;;
50379;SDS011;37474;59.468;18.040;2024-03-23T10:23:35;23.42;;;3.13;;
50379;SDS011;37474;59.468;18.040;2024-03-23T10:26:13;19.42;;;3.00;;
50379;SDS011;37474;59.468;18.040;2024-03-23T10:28:51;20.73;;;3.27;;
50379;SDS011;37474;59.468;18.040;2024-03-23T10:31:22;19.17;;;3.03;;
50379;SDS011;37474;59.468;18.040;2024-03-23T10:33:48;20.10;;;3.47;;
50379;SDS011;37474;59.468;18.040;2024-03-23T10:36:16;19.10;;;2.50;;
50379;SDS011;37474;59.468;18.040;2024-03-23T10:38:47;22.58;;;3.63;;
50379;SDS011;37474;59.468;18.040;2024-03-23T10:41:15;18.50;;;2.65;;
50379;SDS011;37474;59.468;18.040;2024-03-23T10:43:42;23.97;;;2.90;;
50379;SDS011;37474;59.468;18.040;2024-03-23T10:46:11;19.70;;;2.83;;
50379;SDS011;37474;59.468;18.040;2024-03-23T10:48:37;16.80;;;2.80;;
50379;SDS011;37474;59.468;18.040;2024-03-23T10:51:04;15.73;;;2.50;;
50379;SDS011;37474;59.468;18.040;2024-03-23T10:53:33;16.03;;;2.40;;
50379;SDS011;37474;59.468;18.040;2024-03-23T10:56:04;19.20;;;2.97;;
50379;SDS011;37474;59.468;18.040;2024-03-23T10:58:31;16.23;;;2.70;;
50379;SDS011;37474;59.468;18.040;2024-03-23T11:01:03;13.97;;;2.70;;
50379;SDS011;37474;59.468;18.040;2024-03-23T11:03:30;13.53;;;2.27;;
50379;SDS011;37474;59.468;18.040;2024-03-23T11:05:58;17.37;;;2.50;;
50379;SDS011;37474;59.468;18.040;2024-03-23T11:08:31;14.37;;;2.27;;
50379;SDS011;37474;59.468;18.040;2024-03-23T11:11:18;18.50;;;2.30;;
50379;SDS011;37474;59.468;18.040;2024-03-23T11:13:47;15.40;;;2.33;;
50379;SDS011;37474;59.468;18.040;2024-03-23T11:16:15;19.73;;;2.50;;
50379;SDS011;37474;59.468;18.040;2024-03-23T11:18:42;16.00;;;2.67;;
50379;SDS011;37474;59.468;18.040;2024-03-23T11:21:10;19.00;;;2.77;;
50379;SDS011;37474;59.468;18.040;2024-03-23T11:26:42;14.10;;;2.60;;
50379;SDS011;37474;59.468;18.040;2024-03-23T11:29:08;11.67;;;2.70;;
50379;SDS011;37474;59.468;18.040;2024-03-23T11:31:36;8.90;;;1.90;;
50379;SDS011;37474;59.468;18.040;2024-03-23T11:34:03;17.17;;;2.33;;
50379;SDS011;37474;59.468;18.040;2024-03-23T11:36:30;14.97;;;2.30;;
50379;SDS011;37474;59.468;18.040;2024-03-23T11:38:56;15.83;;;2.50;;
50379;SDS011;37474;59.468;18.040;2024-03-23T11:41:24;17.80;;;2.33;;
50379;SDS011;37474;59.468;18.040;2024-03-23T11:43:52;17.30;;;2.67;;
50379;SDS011;37474;59.468;18.040;2024-03-23T11:46:22;15.53;;;2.77;;
50379;SDS011;37474;59.468;18.040;2024-03-23T11:48:49;13.03;;;2.47;;
50379;SDS011;37474;59.468;18.040;2024-03-23T11:51:17;15.80;;;2.00;;
50379;SDS011;37474;59.468;18.040;2024-03-23T11:53:43;15.67;;;2.37;;
50379;SDS011;37474;59.468;18.040;2024-03-23T11:56:10;14.57;;;2.30;;
50379;SDS011;37474;59.468;18.040;2024-03-23T11:58:36;15.60;;;2.20;;
50379;SDS011;37474;59.468;18.040;2024-03-23T12:01:05;11.97;;;1.87;;
50379;SDS011;37474;59.468;18.040;2024-03-23T12:03:36;16.50;;;2.37;;
50379;SDS011;37474;59.468;18.040;2024-03-23T12:06:03;16.40;;;2.37;;
50379;SDS011;37474;59.468;18.040;2024-03-23T12:08:31;11.63;;;2.10;;
50379;SDS011;37474;59.468;18.040;2024-03-23T12:11:05;14.67;;;2.30;;
50379;SDS011;37474;59.468;18.040;2024-03-23T12:13:33;11.70;;;2.17;;
50379;SDS011;37474;59.468;18.040;2024-03-23T12:16:10;14.17;;;2.13;;
50379;SDS011;37474;59.468;18.040;2024-03-23T12:18:37;11.87;;;2.10;;
50379;SDS011;37474;59.468;18.040;2024-03-23T12:21:05;21.90;;;2.17;;
50379;SDS011;37474;59.468;18.040;2024-03-23T12:23:31;14.23;;;2.00;;
50379;SDS011;37474;59.468;18.040;2024-03-23T12:26:00;10.60;;;1.87;;
50379;SDS011;37474;59.468;18.040;2024-03-23T12:28:26;13.40;;;2.37;;
50379;SDS011;37474;59.468;18.040;2024-03-23T12:30:54;12.00;;;2.07;;
50379;SDS011;37474;59.468;18.040;2024-03-23T12:33:21;12.67;;;2.17;;
50379;SDS011;37474;59.468;18.040;2024-03-23T12:35:50;14.60;;;2.70;;
50379;SDS011;37474;59.468;18.040;2024-03-23T12:38:16;13.60;;;2.10;;
50379;SDS011;37474;59.468;18.040;2024-03-23T12:40:46;11.40;;;1.97;;
50379;SDS011;37474;59.468;18.040;2024-03-23T12:43:13;13.20;;;1.95;;
50379;SDS011;37474;59.468;18.040;2024-03-23T12:45:40;17.37;;;2.13;;
50379;SDS011;37474;59.468;18.040;2024-03-23T12:48:06;12.67;;;1.90;;
50379;SDS011;37474;59.468;18.040;2024-03-23T12:50:35;12.27;;;1.97;;
50379;SDS011;37474;59.468;18.040;2024-03-23T12:53:01;11.60;;;2.50;;
50379;SDS011;37474;59.468;18.040;2024-03-23T12:55:28;12.77;;;2.40;;
50379;SDS011;37474;59.468;18.040;2024-03-23T12:57:54;11.53;;;1.90;;
50379;SDS011;37474;59.468;18.040;2024-03-23T13:00:21;11.87;;;1.83;;
50379;SDS011;37474;59.468;18.040;2024-03-23T13:02:47;9.67;;;2.17;;
50379;SDS011;37474;59.468;18.040;2024-03-23T13:05:15;8.87;;;1.80;;
50379;SDS011;37474;59.468;18.040;2024-03-23T13:07:42;10.47;;;1.90;;
50379;SDS011;37474;59.468;18.040;2024-03-23T13:10:09;14.80;;;2.33;;
50379;SDS011;37474;59.468;18.040;2024-03-23T13:12:35;8.40;;;1.70;;
50379;SDS011;37474;59.468;18.040;2024-03-23T13:15:03;12.20;;;2.23;;
50379;SDS011;37474;59.468;18.040;2024-03-23T13:17:30;7.90;;;1.73;;
50379;SDS011;37474;59.468;18.040;2024-03-23T13:19:57;9.00;;;1.77;;
50379;SDS011;37474;59.468;18.040;2024-03-23T13:22:23;13.23;;;2.70;;
50379;SDS011;37474;59.468;18.040;2024-03-23T13:24:51;11.37;;;2.13;;
50379;SDS011;37474;59.468;18.040;2024-03-23T13:27:17;8.03;;;1.60;;
50379;SDS011;37474;59.468;18.040;2024-03-23T13:29:45;9.47;;;2.33;;
50379;SDS011;37474;59.468;18.040;2024-03-23T13:32:12;11.73;;;1.93;;
50379;SDS011;37474;59.468;18.040;2024-03-23T13:34:39;11.10;;;1.83;;
50379;SDS011;37474;59.468;18.040;2024-03-23T13:37:05;10.60;;;1.60;;
50379;SDS011;37474;59.468;18.040;2024-03-23T13:39:32;11.23;;;2.03;;
50379;SDS011;37474;59.468;18.040;2024-03-23T13:42:00;13.53;;;1.87;;
50379;SDS011;37474;59.468;18.040;2024-03-23T13:44:27;7.97;;;1.33;;
50379;SDS011;37474;59.468;18.040;2024-03-23T13:46:53;11.73;;;2.10;;
50379;SDS011;37474;59.468;18.040;2024-03-23T13:49:24;9.33;;;1.70;;
50379;SDS011;37474;59.468;18.040;2024-03-23T13:51:52;11.40;;;1.80;;
50379;SDS011;37474;59.468;18.040;2024-03-23T13:54:19;8.20;;;2.00;;
50379;SDS011;37474;59.468;18.040;2024-03-23T13:56:47;12.47;;;1.67;;
50379;SDS011;37474;59.468;18.040;2024-03-23T13:59:16;12.00;;;2.00;;
50379;SDS011;37474;59.468;18.040;2024-03-23T14:01:42;8.60;;;1.67;;
50379;SDS011;37474;59.468;18.040;2024-03-23T14:04:10;14.40;;;2.10;;
50379;SDS011;37474;59.468;18.040;2024-03-23T14:06:37;12.17;;;1.70;;
50379;SDS011;37474;59.468;18.040;2024-03-23T14:09:04;12.13;;;1.80;;
50379;SDS011;37474;59.468;18.040;2024-03-23T14:11:30;9.03;;;2.10;;
50379;SDS011;37474;59.468;18.040;2024-03-23T14:14:14;6.30;;;1.40;;
50379;SDS011;37474;59.468;18.040;2024-03-23T14:16:43;7.97;;;1.50;;
50379;SDS011;37474;59.468;18.040;2024-03-23T14:19:09;12.80;;;2.07;;
50379;SDS011;37474;59.468;18.040;2024-03-23T14:21:36;11.10;;;2.00;;
50379;SDS011;37474;59.468;18.040;2024-03-23T14:24:02;7.23;;;1.60;;
50379;SDS011;37474;59.468;18.040;2024-03-23T14:26:30;8.33;;;1.70;;
50379;SDS011;37474;59.468;18.040;2024-03-23T14:28:56;6.33;;;1.27;;
50379;SDS011;37474;59.468;18.040;2024-03-23T14:31:24;5.03;;;1.30;;
50379;SDS011;37474;59.468;18.040;2024-03-23T14:33:50;10.33;;;1.73;;
50379;SDS011;37474;59.468;18.040;2024-03-23T14:36:17;5.93;;;1.27;;
50379;SDS011;37474;59.468;18.040;2024-03-23T14:38:46;9.37;;;1.60;;
50379;SDS011;37474;59.468;18.040;2024-03-23T14:41:14;7.53;;;1.37;;
50379;SDS011;37474;59.468;18.040;2024-03-23T14:43:40;10.37;;;1.53;;
50379;SDS011;37474;59.468;18.040;2024-03-23T14:46:09;8.37;;;1.20;;
50379;SDS011;37474;59.468;18.040;2024-03-23T14:48:37;7.03;;;1.47;;
50379;SDS011;37474;59.468;18.040;2024-03-23T14:51:05;5.77;;;1.10;;
50379;SDS011;37474;59.468;18.040;2024-03-23T14:53:32;6.33;;;1.17;;
50379;SDS011;37474;59.468;18.040;2024-03-23T14:55:59;6.67;;;1.20;;
50379;SDS011;37474;59.468;18.040;2024-03-23T14:58:25;5.57;;;1.23;;
50379;SDS011;37474;59.468;18.040;2024-03-23T15:00:52;6.03;;;1.47;;
50379;SDS011;37474;59.468;18.040;2024-03-23T15:03:18;8.40;;;1.40;;
50379;SDS011;37474;59.468;18.040;2024-03-23T15:05:53;6.07;;;0.93;;
50379;SDS011;37474;59.468;18.040;2024-03-23T15:08:20;6.23;;;1.37;;
50379;SDS011;37474;59.468;18.040;2024-03-23T15:10:47;3.63;;;1.10;;
50379;SDS011;37474;59.468;18.040;2024-03-23T15:13:14;5.07;;;1.07;;
50379;SDS011;37474;59.468;18.040;2024-03-23T15:15:41;7.40;;;1.37;;
50379;SDS011;37474;59.468;18.040;2024-03-23T15:18:09;6.70;;;1.30;;
50379;SDS011;37474;59.468;18.040;2024-03-23T15:20:38;12.27;;;1.70;;